Time;durP1;ratioP1;P1;durP2;ratioP2;P2;SDS_P1;SDS_P2;PMS_P1;PMS_P2;Temp;Humidity;BMP_temperature;BMP_pressure;BME280_temperature;BME280_humidity;BME280_pressure;Samples;Min_cycle;Max_cycle;Signal;HPM_P1;HPM_P2
2022/03/16 00:00:05;;;;;;;65.68;35.45;;;5.80;99.90;;;;;;5116128;27;20043;-84
2022/03/16 00:02:30;;;;;;;74.72;36.70;;;5.80;99.90;;;;;;5072836;27;20123;-84
2022/03/16 00:04:56;;;;;;;77.32;36.55;;;5.70;99.90;;;;;;5090158;27;20142;-84
2022/03/16 00:07:22;;;;;;;69.50;35.53;;;5.70;99.90;;;;;;5079407;27;20526;-83
2022/03/16 00:09:48;;;;;;;68.55;34.28;;;6.00;99.90;;;;;;5107220;27;20055;-83
2022/03/16 00:12:15;;;;;;;72.75;35.67;;;5.60;99.90;;;;;;5096655;27;20042;-83
2022/03/16 00:14:41;;;;;;;65.85;35.25;;;5.60;99.90;;;;;;5092544;27;20055;-83
2022/03/16 00:17:07;;;;;;;69.32;34.45;;;5.60;99.90;;;;;;5109690;27;20039;-83
2022/03/16 00:19:34;;;;;;;71.30;34.45;;;5.50;99.90;;;;;;5115119;27;20065;-84
2022/03/16 00:22:01;;;;;;;71.03;34.55;;;5.40;99.90;;;;;;5094120;27;20130;-83
2022/03/16 00:24:27;;;;;;;69.47;35.60;;;5.40;99.90;;;;;;5131975;27;20043;-84
2022/03/16 00:26:53;;;;;;;69.53;34.88;;;5.30;99.90;;;;;;5088051;27;20047;-84
2022/03/16 00:29:19;;;;;;;67.07;34.92;;;5.30;99.90;;;;;;5113143;27;20036;-83
2022/03/16 00:31:45;;;;;;;69.45;34.53;;;5.50;99.90;;;;;;5093895;27;20053;-83
2022/03/16 00:34:11;;;;;;;67.38;34.92;;;5.20;99.90;;;;;;5112653;27;20035;-84
2022/03/16 00:36:36;;;;;;;63.38;33.83;;;5.20;99.90;;;;;;5089628;27;20096;-84
2022/03/16 00:39:04;;;;;;;59.67;33.45;;;5.20;99.90;;;;;;5102398;27;20125;-84
2022/03/16 00:41:29;;;;;;;71.35;34.78;;;5.10;99.90;;;;;;5101167;27;20040;-83
2022/03/16 00:43:55;;;;;;;67.65;35.10;;;5.10;99.90;;;;;;5106399;27;20042;-84
2022/03/16 00:46:21;;;;;;;72.50;34.22;;;5.10;99.90;;;;;;5116986;27;20118;-84
2022/03/16 00:48:46;;;;;;;63.92;32.63;;;5.00;99.90;;;;;;5134379;27;20047;-83
2022/03/16 00:51:12;;;;;;;56.67;31.48;;;5.00;99.90;;;;;;5116953;27;20051;-84
2022/03/16 00:53:39;;;;;;;69.30;33.33;;;5.00;99.90;;;;;;5115492;27;20043;-84
2022/03/16 00:56:07;;;;;;;65.72;31.50;;;5.10;99.90;;;;;;5110483;27;20137;-84
2022/03/16 00:58:33;;;;;;;62.60;33.03;;;4.90;99.90;;;;;;5114596;27;20076;-84
2022/03/16 01:01:00;;;;;;;64.80;33.00;;;4.80;99.90;;;;;;5115553;27;20042;-84
2022/03/16 01:03:27;;;;;;;62.35;32.70;;;4.80;99.90;;;;;;5097821;27;20545;-84
2022/03/16 01:05:53;;;;;;;60.95;32.22;;;4.80;99.90;;;;;;5111400;27;20054;-84
2022/03/16 01:08:18;;;;;;;56.60;30.23;;;4.80;99.90;;;;;;5129537;27;20034;-84
2022/03/16 01:10:44;;;;;;;57.80;31.00;;;4.80;99.90;;;;;;5114922;27;20044;-84
2022/03/16 01:13:10;;;;;;;55.08;29.20;;;4.80;99.90;;;;;;5131563;27;20537;-84
2022/03/16 01:15:35;;;;;;;51.65;28.65;;;4.70;99.90;;;;;;5131402;27;20035;-84
2022/03/16 01:18:01;;;;;;;49.10;27.75;;;4.70;99.90;;;;;;5108489;27;20112;-84
2022/03/16 01:20:28;;;;;;;49.63;28.50;;;4.70;99.90;;;;;;5091323;27;20582;-83
2022/03/16 01:22:53;;;;;;;70.28;32.90;;;4.70;99.90;;;;;;5097941;27;20136;-84
2022/03/16 01:25:19;;;;;;;68.85;34.97;;;4.60;99.90;;;;;;5125144;27;20114;-84
2022/03/16 01:27:45;;;;;;;72.75;34.47;;;4.60;99.90;;;;;;5110413;27;20035;-84
2022/03/16 01:30:13;;;;;;;64.40;30.75;;;4.60;99.90;;;;;;5106367;27;20066;-84
2022/03/16 01:32:39;;;;;;;83.72;37.92;;;4.50;99.90;;;;;;5099430;27;20043;-83
2022/03/16 01:35:06;;;;;;;61.22;33.33;;;5.30;99.90;;;;;;5107297;27;20043;-83
2022/03/16 01:37:32;;;;;;;84.03;39.65;;;4.50;99.90;;;;;;5109587;27;20047;-83
2022/03/16 01:39:58;;;;;;;73.45;35.95;;;4.50;99.90;;;;;;5133347;27;20538;-83
2022/03/16 01:42:25;;;;;;;89.50;38.42;;;4.60;99.90;;;;;;5140542;27;20504;-83
2022/03/16 01:44:52;;;;;;;80.80;37.35;;;4.50;99.90;;;;;;5119863;27;20675;-83
2022/03/16 01:47:21;;;;;;;98.25;41.80;;;4.90;99.90;;;;;;5119094;27;20041;-84
2022/03/16 01:49:48;;;;;;;81.78;36.65;;;4.50;99.90;;;;;;5126083;27;20073;-83
2022/03/16 01:52:18;;;;;;;84.55;37.70;;;4.60;99.90;;;;;;5094743;27;20066;-83
2022/03/16 01:54:44;;;;;;;88.25;37.75;;;4.60;99.90;;;;;;5103168;27;20787;-83
2022/03/16 01:57:11;;;;;;;89.80;39.42;;;4.60;99.90;;;;;;5110507;27;20051;-83
2022/03/16 01:59:38;;;;;;;105.68;45.17;;;4.60;99.90;;;;;;5119906;27;20057;-84
2022/03/16 02:02:05;;;;;;;76.68;37.80;;;4.70;99.90;;;;;;5116219;28;20147;-84
2022/03/16 02:04:31;;;;;;;70.00;35.60;;;4.70;99.90;;;;;;5099928;28;20633;-84
2022/03/16 02:06:58;;;;;;;67.18;35.22;;;4.70;99.90;;;;;;5095511;28;20071;-84
2022/03/16 02:09:24;;;;;;;66.72;34.75;;;4.80;99.90;;;;;;5116558;27;20097;-84
2022/03/16 02:12:02;;;;;;;62.90;34.63;;;4.70;99.90;;;;;;5084638;28;20125;-84
2022/03/16 02:14:29;;;;;;;84.22;38.28;;;4.70;99.90;;;;;;5097186;27;20433;-84
2022/03/16 02:16:56;;;;;;;71.80;35.80;;;4.70;99.90;;;;;;5106538;28;21184;-84
2022/03/16 02:19:23;;;;;;;65.82;34.50;;;4.70;99.90;;;;;;5113357;27;20192;-84
2022/03/16 02:21:58;;;;;;;60.97;33.47;;;4.60;99.90;;;;;;5129118;27;20172;-84
2022/03/16 02:24:30;;;;;;;60.53;31.60;;;4.60;99.90;;;;;;5127228;27;20433;-84
2022/03/16 02:26:57;;;;;;;56.97;32.08;;;4.50;99.90;;;;;;5116478;27;20050;-84
2022/03/16 02:29:23;;;;;;;59.28;31.23;;;4.50;99.90;;;;;;5086045;27;20043;-85
2022/03/16 02:31:49;;;;;;;57.97;29.33;;;4.50;99.90;;;;;;5136540;27;21011;-84
2022/03/16 02:34:14;;;;;;;62.38;31.10;;;4.50;99.90;;;;;;5099263;27;20063;-84
2022/03/16 02:36:40;;;;;;;67.75;32.03;;;4.40;99.90;;;;;;5103196;27;20075;-84
2022/03/16 02:39:06;;;;;;;69.72;33.72;;;4.40;99.90;;;;;;5120509;27;20047;-84
2022/03/16 02:41:31;;;;;;;71.38;33.63;;;4.30;99.90;;;;;;5120414;27;20118;-84
2022/03/16 02:43:57;;;;;;;297.00;39.15;;;4.20;99.90;;;;;;5101912;27;20055;-84
2022/03/16 02:46:23;;;;;;;99.78;31.83;;;4.50;99.90;;;;;;5136953;27;20050;-84
2022/03/16 02:48:49;;;;;;;56.90;30.63;;;4.10;99.90;;;;;;5117004;27;20202;-84
2022/03/16 02:51:14;;;;;;;318.98;35.60;;;4.00;99.90;;;;;;5108618;27;20046;-84
2022/03/16 02:53:40;;;;;;;203.57;30.83;;;3.90;99.90;;;;;;5103772;27;20624;-84
2022/03/16 02:56:07;;;;;;;49.72;27.38;;;3.80;99.90;;;;;;5097601;27;20737;-85
2022/03/16 02:58:33;;;;;;;89.68;28.70;;;3.70;99.90;;;;;;5111671;27;20857;-85
2022/03/16 03:01:03;;;;;;;152.73;29.25;;;3.70;99.90;;;;;;5127996;27;20042;-85
2022/03/16 03:03:29;;;;;;;48.25;26.20;;;3.70;99.90;;;;;;5102272;27;20070;-85
2022/03/16 03:05:55;;;;;;;44.55;25.02;;;3.70;99.90;;;;;;5111986;27;20530;-85
2022/03/16 03:08:21;;;;;;;69.63;29.05;;;3.60;99.90;;;;;;5081204;27;20133;-85
2022/03/16 03:10:48;;;;;;;76.65;28.88;;;3.60;99.90;;;;;;5111843;27;20164;-85
2022/03/16 03:13:14;;;;;;;59.60;29.15;;;3.60;99.90;;;;;;5123547;27;20105;-84
2022/03/16 03:15:41;;;;;;;62.72;29.67;;;3.60;99.90;;;;;;5124859;27;20060;-85
2022/03/16 03:18:07;;;;;;;54.92;28.25;;;3.60;99.90;;;;;;5139227;27;20079;-85
2022/03/16 03:20:33;;;;;;;42.53;25.17;;;4.50;99.90;;;;;;5115741;27;20046;-85
2022/03/16 03:23:02;;;;;;;44.08;23.15;;;3.50;99.90;;;;;;5099190;27;20050;-85
2022/03/16 03:25:28;;;;;;;37.75;22.90;;;3.50;99.90;;;;;;5118999;27;20647;-85
2022/03/16 03:27:53;;;;;;;264.90;25.88;;;3.50;99.90;;;;;;5145895;27;20047;-85
2022/03/16 03:30:19;;;;;;;252.00;27.30;;;3.40;99.90;;;;;;5108261;27;20130;-85
2022/03/16 03:32:45;;;;;;;62.60;21.70;;;3.40;99.90;;;;;;5112221;27;20063;-86
2022/03/16 03:35:10;;;;;;;58.80;20.95;;;3.30;99.90;;;;;;5149901;27;20046;-86
2022/03/16 03:37:36;;;;;;;60.25;21.38;;;3.30;99.90;;;;;;5138350;27;21376;-85
2022/03/16 03:40:03;;;;;;;34.53;19.42;;;3.30;99.90;;;;;;5102178;27;20054;-86
2022/03/16 03:42:29;;;;;;;34.72;18.38;;;3.20;99.90;;;;;;5100023;27;20036;-85
2022/03/16 03:44:54;;;;;;;39.70;18.38;;;3.20;99.90;;;;;;5093413;27;20050;-86
2022/03/16 03:47:20;;;;;;;201.27;24.58;;;3.20;99.90;;;;;;5118213;27;20035;-86
2022/03/16 03:49:46;;;;;;;156.68;23.50;;;3.20;99.90;;;;;;5114320;27;20115;-85
2022/03/16 03:52:14;;;;;;;193.52;27.33;;;3.10;99.90;;;;;;5109646;27;20044;-84
2022/03/16 03:54:40;;;;;;;184.23;26.67;;;3.00;99.90;;;;;;5141134;27;20407;-85
2022/03/16 03:57:06;;;;;;;249.23;28.70;;;3.00;99.90;;;;;;5112700;27;20047;-85
2022/03/16 03:59:32;;;;;;;286.60;30.63;;;3.00;99.90;;;;;;5114784;27;20070;-85
2022/03/16 04:01:58;;;;;;;431.67;36.15;;;2.90;99.90;;;;;;5129963;27;20511;-85
2022/03/16 04:04:23;;;;;;;360.60;36.40;;;3.00;99.90;;;;;;5125525;27;20039;-84
2022/03/16 04:06:49;;;;;;;240.93;31.63;;;3.00;99.90;;;;;;5107835;27;20054;-85
2022/03/16 04:09:15;;;;;;;249.07;30.50;;;3.00;99.90;;;;;;5080887;27;20043;-85
2022/03/16 04:11:40;;;;;;;376.92;37.40;;;2.30;99.90;;;;;;5093311;27;21481;-84
2022/03/16 04:14:06;;;;;;;312.20;33.95;;;2.90;99.90;;;;;;5099826;27;20039;-85
2022/03/16 04:16:32;;;;;;;260.15;32.08;;;2.90;99.90;;;;;;5112024;27;20074;-85
2022/03/16 04:18:58;;;;;;;340.40;35.85;;;2.80;99.90;;;;;;5121039;27;20061;-85
2022/03/16 04:21:24;;;;;;;101.47;28.08;;;2.80;99.90;;;;;;5124643;27;20050;-84
2022/03/16 04:23:50;;;;;;;55.53;25.10;;;2.80;99.90;;;;;;5116815;27;20104;-84
2022/03/16 04:26:16;;;;;;;358.17;37.33;;;2.80;99.90;;;;;;5110286;27;20126;-85
2022/03/16 04:28:42;;;;;;;135.82;29.98;;;2.80;99.90;;;;;;5105851;27;20131;-85
2022/03/16 04:31:08;;;;;;;147.95;27.85;;;2.90;99.90;;;;;;5115934;27;20050;-85
2022/03/16 04:33:37;;;;;;;70.28;27.20;;;2.90;99.90;;;;;;5130273;27;20066;-85
2022/03/16 04:36:06;;;;;;;249.65;34.42;;;2.90;99.90;;;;;;5108678;27;20047;-85
2022/03/16 04:38:32;;;;;;;504.52;45.65;;;2.90;99.90;;;;;;5109968;27;20035;-85
2022/03/16 04:41:01;;;;;;;272.15;32.78;;;3.60;99.90;;;;;;5098580;27;20043;-85
2022/03/16 04:43:26;;;;;;;263.75;32.78;;;2.90;99.90;;;;;;5098105;27;20036;-85
2022/03/16 04:45:52;;;;;;;53.05;27.25;;;2.90;99.90;;;;;;5136452;27;20559;-85
2022/03/16 04:48:18;;;;;;;244.95;33.70;;;2.90;99.90;;;;;;5121402;27;20038;-85
2022/03/16 04:50:43;;;;;;;101.53;29.88;;;2.90;99.90;;;;;;5095906;27;20111;-85
2022/03/16 04:53:09;;;;;;;181.75;33.08;;;3.40;99.90;;;;;;5096469;27;20052;-85
2022/03/16 04:55:36;;;;;;;144.25;30.23;;;2.80;99.90;;;;;;5099796;27;20038;-85
2022/03/16 04:58:06;;;;;;;66.97;26.63;;;2.80;99.90;;;;;;5128287;27;20137;-85
2022/03/16 05:00:34;;;;;;;150.18;33.05;;;2.80;99.90;;;;;;5097726;27;20085;-85
2022/03/16 05:03:03;;;;;;;53.90;25.88;;;2.70;99.90;;;;;;5101687;27;20043;-84
2022/03/16 05:05:29;;;;;;;123.30;29.40;;;2.80;99.90;;;;;;5116887;27;20055;-85
2022/03/16 05:07:56;;;;;;;193.48;35.03;;;2.70;99.90;;;;;;5108135;27;20570;-85
2022/03/16 05:10:21;;;;;;;91.55;31.05;;;2.70;99.90;;;;;;5144835;27;20039;-85
2022/03/16 05:12:47;;;;;;;163.68;35.13;;;2.70;99.90;;;;;;5133897;27;20031;-85
2022/03/16 05:15:18;;;;;;;62.58;29.55;;;2.70;99.90;;;;;;5118018;27;20042;-85
2022/03/16 05:17:45;;;;;;;131.85;35.75;;;2.70;99.90;;;;;;5099109;27;20517;-85
2022/03/16 05:20:12;;;;;;;95.07;33.75;;;3.40;99.90;;;;;;5091791;27;20054;-85
2022/03/16 05:22:44;;;;;;;111.80;32.90;;;2.80;99.90;;;;;;5111116;27;20043;-84
2022/03/16 05:25:15;;;;;;;171.10;33.55;;;2.80;99.90;;;;;;5113835;27;20050;-85
2022/03/16 05:27:41;;;;;;;212.88;35.63;;;2.80;99.90;;;;;;5087733;27;20072;-84
2022/03/16 05:30:09;;;;;;;83.50;28.08;;;2.80;99.90;;;;;;5102329;27;20043;-85
2022/03/16 05:32:35;;;;;;;138.50;31.48;;;2.80;99.90;;;;;;5111294;27;20038;-84
2022/03/16 05:35:01;;;;;;;108.80;29.38;;;3.30;99.90;;;;;;5115807;27;20407;-85
2022/03/16 05:37:27;;;;;;;121.55;29.48;;;2.60;99.90;;;;;;5100237;27;20092;-85
2022/03/16 05:39:53;;;;;;;66.72;27.08;;;3.60;99.90;;;;;;5134449;27;20131;-84
2022/03/16 05:42:19;;;;;;;134.82;34.47;;;2.70;99.90;;;;;;5097197;27;20043;-86
2022/03/16 05:44:44;;;;;;;80.43;28.60;;;2.70;99.90;;;;;;5099405;27;20038;-86
2022/03/16 05:47:14;;;;;;;85.10;26.90;;;2.60;99.90;;;;;;5099060;27;20477;-85
2022/03/16 05:49:39;;;;;;;75.25;28.95;;;2.60;99.90;;;;;;5102620;27;20051;-85
2022/03/16 05:52:06;;;;;;;138.90;38.30;;;2.50;99.90;;;;;;5127754;27;20043;-86
2022/03/16 05:54:31;;;;;;;60.65;28.83;;;2.60;99.90;;;;;;5125736;27;20070;-86
2022/03/16 05:56:57;;;;;;;85.78;31.95;;;3.40;99.90;;;;;;5118854;27;20502;-86
2022/03/16 05:59:23;;;;;;;54.88;26.70;;;2.50;99.90;;;;;;5107951;27;20479;-85
2022/03/16 06:01:53;;;;;;;53.65;28.52;;;2.50;99.90;;;;;;5099196;27;20058;-86
2022/03/16 06:04:19;;;;;;;73.15;32.28;;;3.00;99.90;;;;;;5109113;27;20367;-86
2022/03/16 06:06:52;;;;;;;69.28;32.35;;;2.60;99.90;;;;;;5117208;27;20067;-86
2022/03/16 06:09:19;;;;;;;64.93;32.53;;;2.60;99.90;;;;;;5118641;27;20125;-86
2022/03/16 06:11:44;;;;;;;70.00;32.20;;;3.60;99.90;;;;;;5121564;27;20022;-87
2022/03/16 06:14:10;;;;;;;67.45;31.85;;;2.60;99.90;;;;;;5123626;27;20041;-87
2022/03/16 06:16:36;;;;;;;60.80;32.15;;;2.70;99.90;;;;;;5158974;27;20293;-87
2022/03/16 06:19:01;;;;;;;56.63;30.70;;;2.10;99.90;;;;;;5145945;27;20107;-86
2022/03/16 06:21:27;;;;;;;62.75;30.80;;;2.80;99.90;;;;;;5130624;27;20043;-87
2022/03/16 06:24:02;;;;;;;62.08;30.67;;;2.90;99.90;;;;;;5112222;27;20061;-86
2022/03/16 06:26:31;;;;;;;69.80;31.55;;;3.00;99.90;;;;;;5107509;27;20118;-86
2022/03/16 06:28:57;;;;;;;68.90;31.42;;;2.90;99.90;;;;;;5096307;27;20082;-86
2022/03/16 06:31:22;;;;;;;61.88;33.53;;;3.80;99.90;;;;;;5100801;27;20043;-86
2022/03/16 06:33:48;;;;;;;73.93;36.03;;;3.00;99.90;;;;;;5118608;27;20065;-86
2022/03/16 06:36:14;;;;;;;67.75;34.05;;;3.10;99.90;;;;;;5122394;27;20045;-86
2022/03/16 06:38:40;;;;;;;75.60;35.20;;;3.20;99.90;;;;;;5106851;27;20171;-86
2022/03/16 06:41:06;;;;;;;71.35;33.65;;;3.20;99.90;;;;;;5136459;27;20035;-87
2022/03/16 06:43:32;;;;;;;67.13;34.50;;;3.30;99.90;;;;;;5122299;27;20431;-86
2022/03/16 06:45:57;;;;;;;66.97;34.60;;;3.40;99.90;;;;;;5112265;27;20039;-86
2022/03/16 06:48:24;;;;;;;69.82;34.38;;;3.40;99.90;;;;;;5104040;27;20047;-86
2022/03/16 06:50:51;;;;;;;81.32;36.47;;;3.50;99.90;;;;;;5094256;27;20377;-86
2022/03/16 06:53:16;;;;;;;72.15;36.20;;;3.60;99.90;;;;;;5125862;27;20050;-85
2022/03/16 06:55:42;;;;;;;73.68;36.13;;;3.70;99.90;;;;;;5127097;27;20035;-86
2022/03/16 06:58:08;;;;;;;73.72;34.78;;;3.90;99.90;;;;;;5122078;27;20423;-86
2022/03/16 07:00:34;;;;;;;65.93;33.72;;;3.70;99.90;;;;;;5105612;27;21892;-86
2022/03/16 07:03:05;;;;;;;71.18;34.95;;;3.80;99.90;;;;;;5134679;27;20121;-86
2022/03/16 07:05:32;;;;;;;;;;;3.80;99.90;;;;;;5093618;27;20039;-86
2022/03/16 07:08:02;;;;;;;65.60;34.35;;;4.80;99.90;;;;;;5096618;27;20335;-86
2022/03/16 07:10:33;;;;;;;62.75;33.22;;;4.00;99.90;;;;;;5094664;27;20799;-87
2022/03/16 07:13:07;;;;;;;64.18;33.78;;;4.00;99.90;;;;;;5104855;27;20763;-87
2022/03/16 07:15:34;;;;;;;70.88;37.28;;;4.10;99.90;;;;;;5101443;27;20043;-86
2022/03/16 07:18:02;;;;;;;60.78;33.90;;;4.20;99.90;;;;;;5134226;27;20051;-87
2022/03/16 07:20:28;;;;;;;66.45;35.10;;;4.30;99.90;;;;;;5136404;27;20598;-86
2022/03/16 07:23:20;;;;;;;60.70;33.25;;;4.40;99.90;;;;;;5095552;27;20031;-87
2022/03/16 07:25:50;;;;;;;62.35;33.13;;;4.90;99.90;;;;;;5092133;27;20664;-86
2022/03/16 07:28:20;;;;;;;56.88;32.88;;;5.90;99.90;;;;;;5117027;27;20145;-86
2022/03/16 07:30:47;;;;;;;54.20;31.67;;;4.80;99.90;;;;;;5119435;27;20134;-85
2022/03/16 07:33:13;;;;;;;54.92;32.42;;;4.80;99.90;;;;;;5099017;27;20038;-86
2022/03/16 07:35:39;;;;;;;52.80;31.15;;;4.90;99.90;;;;;;5115681;27;20044;-86
2022/03/16 07:38:06;;;;;;;58.35;33.72;;;5.00;99.90;;;;;;5120002;27;21677;-86
2022/03/16 07:40:36;;;;;;;50.17;29.17;;;5.20;99.90;;;;;;5101133;27;20071;-87
2022/03/16 07:43:03;;;;;;;52.38;32.13;;;5.30;99.90;;;;;;5087258;27;20046;-86
2022/03/16 07:45:29;;;;;;;54.22;30.83;;;5.40;99.90;;;;;;5133217;27;20060;-85
2022/03/16 07:47:56;;;;;;;54.63;31.05;;;5.40;99.90;;;;;;5113036;27;20147;-87
2022/03/16 07:50:26;;;;;;;58.35;33.15;;;5.50;99.90;;;;;;5102201;27;20067;-86
2022/03/16 07:52:53;;;;;;;56.58;33.22;;;5.60;99.90;;;;;;5135868;27;20047;-86
2022/03/16 07:55:19;;;;;;;64.47;32.67;;;6.50;99.90;;;;;;5129452;27;20264;-86
2022/03/16 07:57:45;;;;;;;53.35;31.27;;;6.30;99.90;;;;;;5109372;27;20043;-86
2022/03/16 08:00:13;;;;;;;63.30;34.42;;;6.00;99.90;;;;;;5137863;27;20046;-85
2022/03/16 08:02:40;;;;;;;53.15;32.63;;;6.20;99.90;;;;;;5124619;27;20047;-84
2022/03/16 08:05:06;;;;;;;54.35;31.88;;;6.30;99.90;;;;;;5100429;27;20035;-85
2022/03/16 08:07:32;;;;;;;50.13;29.25;;;6.30;99.90;;;;;;5118182;27;20064;-85
2022/03/16 08:10:00;;;;;;;55.83;32.83;;;7.00;99.90;;;;;;5103429;27;20425;-85
2022/03/16 08:12:27;;;;;;;53.28;32.13;;;6.50;99.90;;;;;;5094158;27;20051;-85
2022/03/16 08:14:53;;;;;;;54.28;31.10;;;6.60;99.90;;;;;;5120071;27;20121;-85
2022/03/16 08:17:19;;;;;;;49.17;28.65;;;6.70;99.90;;;;;;5118825;27;20053;-85
2022/03/16 08:19:45;;;;;;;48.72;29.45;;;6.80;99.90;;;;;;5130054;27;20112;-85
2022/03/16 08:22:11;;;;;;;49.88;30.15;;;7.00;99.90;;;;;;5111064;27;20051;-86
2022/03/16 08:24:37;;;;;;;45.63;28.63;;;7.10;99.90;;;;;;5100933;27;20104;-86
2022/03/16 08:27:06;;;;;;;45.28;27.70;;;7.30;99.90;;;;;;5111947;27;20039;-86
2022/03/16 08:29:32;;;;;;;41.45;26.80;;;7.60;99.90;;;;;;5094309;27;20055;-85
2022/03/16 08:31:58;;;;;;;45.15;26.58;;;7.80;99.90;;;;;;5106506;27;20048;-87
2022/03/16 08:34:24;;;;;;;42.55;25.08;;;8.80;99.90;;;;;;5138773;27;20043;-87
2022/03/16 08:36:51;;;;;;;42.63;24.90;;;8.30;99.90;;;;;;5126955;27;20054;-87
2022/03/16 08:39:17;;;;;;;41.33;24.35;;;8.40;99.90;;;;;;5142889;27;20530;-85
2022/03/16 08:41:43;;;;;;;39.80;24.42;;;8.50;99.90;;;;;;5141102;27;20042;-85
2022/03/16 08:44:08;;;;;;;39.13;23.60;;;8.60;99.90;;;;;;5097012;27;20051;-85
2022/03/16 08:46:34;;;;;;;39.83;24.70;;;8.70;99.90;;;;;;5100923;27;20107;-86
2022/03/16 08:49:00;;;;;;;36.72;22.77;;;8.70;99.90;;;;;;5139597;27;20042;-86
2022/03/16 08:51:26;;;;;;;36.92;23.95;;;8.90;99.90;;;;;;5110586;27;20584;-86
2022/03/16 08:53:51;;;;;;;36.33;22.52;;;9.10;99.90;;;;;;5098995;27;20091;-85
2022/03/16 08:56:17;;;;;;;37.17;23.20;;;10.10;99.90;;;;;;5127798;27;20047;-86
2022/03/16 08:58:43;;;;;;;36.78;22.83;;;9.50;99.90;;;;;;5109193;27;20037;-86
2022/03/16 09:01:09;;;;;;;32.40;22.40;;;9.70;99.90;;;;;;5130866;27;20035;-86
2022/03/16 09:03:38;;;;;;;33.28;22.30;;;9.80;99.90;;;;;;5109213;27;20050;-87
2022/03/16 09:06:04;;;;;;;37.00;22.38;;;10.00;99.90;;;;;;5111445;27;20049;-86
2022/03/16 09:08:31;;;;;;;36.22;22.70;;;10.20;99.90;;;;;;5111857;27;20035;-86
2022/03/16 09:10:57;;;;;;;35.47;23.20;;;10.40;99.90;;;;;;5098621;27;20038;-87
2022/03/16 09:13:23;;;;;;;40.00;23.02;;;10.70;99.90;;;;;;5108091;27;20061;-85
2022/03/16 09:15:51;;;;;;;34.63;22.70;;;10.60;99.90;;;;;;5079072;27;20047;-85
2022/03/16 09:18:18;;;;;;;35.75;22.13;;;10.80;99.90;;;;;;5108995;27;20503;-88
2022/03/16 09:20:44;;;;;;;34.47;23.17;;;10.60;99.90;;;;;;5105793;27;20043;-85
2022/03/16 09:23:10;;;;;;;35.58;22.23;;;10.70;99.90;;;;;;5106338;27;20058;-86
2022/03/16 09:25:36;;;;;;;36.55;22.85;;;10.70;99.90;;;;;;5092573;27;20217;-87
2022/03/16 09:28:02;;;;;;;37.70;23.67;;;10.70;99.90;;;;;;5098937;27;20384;-86
2022/03/16 09:30:28;;;;;;;37.78;23.75;;;10.60;99.90;;;;;;5114511;27;20050;-87
2022/03/16 09:33:09;;;;;;;39.85;25.40;;;10.60;99.90;;;;;;5111174;27;20567;-86
2022/03/16 09:35:35;;;;;;;35.65;22.73;;;10.70;99.90;;;;;;5114922;27;20043;-85
2022/03/16 09:38:01;;;;;;;35.95;22.83;;;10.90;99.90;;;;;;5095503;27;20104;-87
2022/03/16 09:40:27;;;;;;;35.03;22.85;;;11.00;99.90;;;;;;5131659;27;20520;-84
2022/03/16 09:42:54;;;;;;;38.22;21.92;;;11.10;99.90;;;;;;5108327;27;20051;-86
2022/03/16 09:45:22;;;;;;;36.53;22.60;;;11.30;99.90;;;;;;5111752;27;20437;-87
2022/03/16 09:47:49;;;;;;;37.22;22.70;;;11.40;99.90;;;;;;5121128;27;20054;-86
2022/03/16 09:50:19;;;;;;;35.40;21.60;;;11.50;99.90;;;;;;5111487;27;20039;-88
2022/03/16 09:52:46;;;;;;;37.00;22.25;;;11.60;99.90;;;;;;5111057;27;20051;-87
2022/03/16 09:55:13;;;;;;;33.70;20.42;;;11.70;99.90;;;;;;5124953;27;20122;-87
2022/03/16 09:57:42;;;;;;;32.85;20.60;;;11.90;99.90;;;;;;5129675;27;20422;-86
2022/03/16 10:00:12;;;;;;;30.58;19.52;;;12.00;99.90;;;;;;5103261;27;20392;-85
2022/03/16 10:02:38;;;;;;;29.38;18.70;;;12.10;99.90;;;;;;5118033;27;20043;-86
2022/03/16 10:05:08;;;;;;;27.65;17.25;;;12.10;99.90;;;;;;5118155;27;20086;-86
2022/03/16 10:07:36;;;;;;;25.40;15.20;;;12.20;99.90;;;;;;5104800;27;20700;-85
2022/03/16 10:15:35;;;;;;;27.45;15.93;;;12.30;99.90;;;;;;5109894;27;20062;-85
2022/03/16 10:18:02;;;;;;;23.02;13.93;;;12.40;99.90;;;;;;5112070;27;20066;-84
2022/03/16 10:20:29;;;;;;;22.60;14.10;;;13.00;99.90;;;;;;5102949;27;20077;-85
2022/03/16 10:23:06;;;;;;;19.77;12.38;;;12.60;99.90;;;;;;5117095;27;20031;-86
2022/03/16 10:25:55;;;;;;;20.63;12.23;;;12.50;99.90;;;;;;5121550;27;20047;-88
2022/03/16 10:28:25;;;;;;;21.55;13.52;;;12.50;99.90;;;;;;5108339;27;20047;-83
2022/03/16 10:31:00;;;;;;;20.88;12.80;;;12.50;99.90;;;;;;5117131;27;20171;-83
2022/03/16 10:33:43;;;;;;;22.10;12.90;;;12.40;99.90;;;;;;5110037;27;20039;-88
2022/03/16 10:36:11;;;;;;;23.08;13.07;;;12.50;99.90;;;;;;5125014;27;20050;-86
2022/03/16 10:38:41;;;;;;;20.25;11.07;;;12.50;99.90;;;;;;5114372;27;20126;-87
2022/03/16 10:46:46;;;;;;;19.75;11.13;;;12.70;99.90;;;;;;5116240;27;20038;-87
2022/03/16 10:49:16;;;;;;;17.30;11.75;;;12.30;99.90;;;;;;5122181;27;20070;-87
2022/03/16 10:51:44;;;;;;;19.02;11.40;;;12.30;99.90;;;;;;5113729;27;20077;-87
2022/03/16 10:54:14;;;;;;;17.55;10.32;;;12.30;99.90;;;;;;5097009;27;20432;-84
2022/03/16 10:56:40;;;;;;;16.38;9.88;;;12.50;99.90;;;;;;5109718;27;20091;-86
2022/03/16 10:59:07;;;;;;;19.77;9.98;;;12.70;99.90;;;;;;5145718;27;20071;-86
2022/03/16 11:01:39;;;;;;;16.25;9.43;;;12.70;99.90;;;;;;5134350;27;20042;-85
2022/03/16 11:04:06;;;;;;;17.90;9.85;;;12.90;99.90;;;;;;5126603;27;20111;-88
2022/03/16 11:06:35;;;;;;;18.63;10.25;;;13.00;99.90;;;;;;5119713;27;20138;-87
2022/03/16 11:09:01;;;;;;;14.20;9.23;;;13.10;99.90;;;;;;5120816;27;20554;-87
2022/03/16 11:14:13;;;;;;;17.60;10.82;;;13.90;99.90;;;;;;5139104;27;20145;-86
2022/03/16 11:16:40;;;;;;;16.88;10.45;;;13.10;99.90;;;;;;5141024;27;20047;-80
2022/03/16 11:19:07;;;;;;;18.48;10.75;;;13.10;99.90;;;;;;5124514;27;20080;-82
2022/03/16 11:21:45;;;;;;;19.20;10.63;;;13.10;99.90;;;;;;5116745;27;20039;-86
2022/03/16 11:24:42;;;;;;;17.40;10.43;;;13.20;99.90;;;;;;5100120;27;20031;-86
2022/03/16 11:27:25;;;;;;;20.58;10.70;;;13.30;99.90;;;;;;5100510;27;20055;-86
2022/03/16 11:30:07;;;;;;;16.05;9.98;;;13.40;99.90;;;;;;5102694;27;21643;-84
2022/03/16 11:32:39;;;;;;;20.23;11.23;;;13.40;99.90;;;;;;5095938;27;20039;-86
2022/03/16 11:35:16;;;;;;;17.25;10.32;;;13.40;99.90;;;;;;5081250;27;20871;-86
2022/03/16 11:37:49;;;;;;;20.33;11.23;;;13.40;99.90;;;;;;5082350;27;20084;-86
2022/03/16 11:40:24;;;;;;;18.00;9.88;;;13.50;99.90;;;;;;5097146;27;20070;-86
2022/03/16 11:43:15;;;;;;;19.13;10.75;;;14.00;99.90;;;;;;5113066;27;20096;-85
2022/03/16 11:45:55;;;;;;;17.60;11.47;;;13.90;99.90;;;;;;5097118;27;20504;-87
2022/03/16 11:48:33;;;;;;;19.55;11.27;;;14.00;99.90;;;;;;5095457;27;20054;-84
2022/03/16 11:51:16;;;;;;;14.68;9.52;;;14.00;99.90;;;;;;5097292;27;20117;-85
2022/03/16 11:53:54;;;;;;;15.88;9.43;;;14.00;99.90;;;;;;5097167;27;20138;-88
2022/03/16 11:56:23;;;;;;;16.10;9.82;;;14.10;99.90;;;;;;5092894;27;20039;-87
2022/03/16 11:59:04;;;;;;;17.02;9.82;;;14.20;99.90;;;;;;5119977;27;20043;-88
2022/03/16 12:01:34;;;;;;;19.70;11.38;;;14.30;99.90;;;;;;5088324;27;20043;-89
2022/03/16 12:04:08;;;;;;;18.58;10.52;;;14.40;99.90;;;;;;5110733;27;20760;-86
2022/03/16 12:07:06;;;;;;;19.10;10.93;;;14.40;99.90;;;;;;5087171;27;20459;-86
2022/03/16 12:09:45;;;;;;;18.00;9.52;;;14.50;99.90;;;;;;5108793;27;20043;-88
2022/03/16 12:15:19;;;;;;;13.65;8.65;;;14.50;99.50;;;;;;5093861;27;21230;-84
2022/03/16 12:17:54;;;;;;;17.23;9.07;;;14.60;99.10;;;;;;5096817;27;20051;-84
2022/03/16 12:20:23;;;;;;;17.83;9.95;;;14.70;99.90;;;;;;5087428;27;20119;-83
2022/03/16 12:22:56;;;;;;;15.55;8.98;;;14.60;99.10;;;;;;5107772;27;20042;-87
2022/03/16 12:25:29;;;;;;;15.98;8.85;;;14.60;99.70;;;;;;5090847;27;21020;-85
2022/03/16 12:30:59;;;;;;;21.08;8.98;;;14.60;97.90;;;;;;5079937;28;20051;-84
2022/03/16 12:33:30;;;;;;;16.95;9.35;;;14.60;99.90;;;;;;5093716;27;20050;-86
2022/03/16 12:36:04;;;;;;;15.70;8.90;;;14.80;99.90;;;;;;5078045;27;20043;-86
2022/03/16 12:38:32;;;;;;;17.13;10.10;;;14.80;99.60;;;;;;5087719;27;20074;-86
2022/03/16 12:43:48;;;;;;;16.90;9.77;;;14.80;97.30;;;;;;5097535;27;20051;-87
2022/03/16 12:46:32;;;;;;;16.30;10.40;;;14.70;98.80;;;;;;5088520;27;21262;-86
2022/03/16 12:49:03;;;;;;;17.80;10.55;;;14.80;99.90;;;;;;5087782;27;20057;-85
2022/03/16 12:51:53;;;;;;;19.27;10.27;;;14.80;99.90;;;;;;5107004;27;20054;-84
2022/03/16 12:54:29;;;;;;;18.77;10.48;;;14.90;99.90;;;;;;5093324;27;20139;-87
2022/03/16 12:57:06;;;;;;;16.15;9.20;;;14.90;99.90;;;;;;5093161;27;20043;-86
2022/03/16 12:59:36;;;;;;;17.70;9.70;;;15.00;99.70;;;;;;5109412;27;20062;-85